sensor_id;sensor_type;location;lat;lon;timestamp;temperature;humidity
10057;DHT22;5068;51.286;7.518;2022-09-09T00:00:22;14.20;66.20
10057;DHT22;5068;51.286;7.518;2022-09-09T00:02:03;14.30;67.20
10057;DHT22;5068;51.286;7.518;2022-09-09T00:03:47;14.30;66.50
10057;DHT22;5068;51.286;7.518;2022-09-09T00:05:30;14.30;66.40
10057;DHT22;5068;51.286;7.518;2022-09-09T00:07:14;14.30;66.50
10057;DHT22;5068;51.286;7.518;2022-09-09T00:09:01;14.30;66.60
10057;DHT22;5068;51.286;7.518;2022-09-09T00:10:40;14.30;66.60
10057;DHT22;5068;51.286;7.518;2022-09-09T00:12:17;14.30;66.40
10057;DHT22;5068;51.286;7.518;2022-09-09T00:14:00;14.30;66.50
10057;DHT22;5068;51.286;7.518;2022-09-09T00:15:48;14.30;66.60
10057;DHT22;5068;51.286;7.518;2022-09-09T00:17:35;14.40;67.10
10057;DHT22;5068;51.286;7.518;2022-09-09T00:19:18;14.30;66.70
10057;DHT22;5068;51.286;7.518;2022-09-09T00:20:58;14.40;66.70
10057;DHT22;5068;51.286;7.518;2022-09-09T00:22:41;14.40;66.50
10057;DHT22;5068;51.286;7.518;2022-09-09T00:24:28;14.40;66.60
10057;DHT22;5068;51.286;7.518;2022-09-09T00:26:11;14.40;66.50
10057;DHT22;5068;51.286;7.518;2022-09-09T00:27:52;14.40;66.60
10057;DHT22;5068;51.286;7.518;2022-09-09T00:29:31;14.40;66.50
10057;DHT22;5068;51.286;7.518;2022-09-09T00:31:15;14.40;66.80
10057;DHT22;5068;51.286;7.518;2022-09-09T00:32:54;14.40;66.80
10057;DHT22;5068;51.286;7.518;2022-09-09T00:34:32;14.40;66.70
10057;DHT22;5068;51.286;7.518;2022-09-09T00:36:12;14.40;66.80
10057;DHT22;5068;51.286;7.518;2022-09-09T00:37:51;14.40;66.90
10057;DHT22;5068;51.286;7.518;2022-09-09T00:39:32;14.40;66.80
10057;DHT22;5068;51.286;7.518;2022-09-09T00:41:14;14.40;66.90
10057;DHT22;5068;51.286;7.518;2022-09-09T00:43:07;14.50;67.10
10057;DHT22;5068;51.286;7.518;2022-09-09T00:45:01;14.40;67.20
10057;DHT22;5068;51.286;7.518;2022-09-09T00:46:56;14.50;66.80
10057;DHT22;5068;51.286;7.518;2022-09-09T00:48:47;14.50;66.70
10057;DHT22;5068;51.286;7.518;2022-09-09T00:50:38;14.50;66.40
10057;DHT22;5068;51.286;7.518;2022-09-09T00:52:26;14.50;66.20
10057;DHT22;5068;51.286;7.518;2022-09-09T00:54:16;14.50;66.00
10057;DHT22;5068;51.286;7.518;2022-09-09T00:56:09;14.50;65.90
10057;DHT22;5068;51.286;7.518;2022-09-09T00:57:46;14.50;65.80
10057;DHT22;5068;51.286;7.518;2022-09-09T00:59:28;14.50;65.60
10057;DHT22;5068;51.286;7.518;2022-09-09T01:01:12;14.50;65.40
10057;DHT22;5068;51.286;7.518;2022-09-09T01:03:11;14.50;65.30
10057;DHT22;5068;51.286;7.518;2022-09-09T01:05:07;14.40;65.30
10057;DHT22;5068;51.286;7.518;2022-09-09T01:06:56;14.40;65.10
10057;DHT22;5068;51.286;7.518;2022-09-09T01:08:57;14.40;65.00
10057;DHT22;5068;51.286;7.518;2022-09-09T01:10:48;14.40;65.10
10057;DHT22;5068;51.286;7.518;2022-09-09T01:12:39;14.40;64.80
10057;DHT22;5068;51.286;7.518;2022-09-09T01:14:39;14.40;64.60
10057;DHT22;5068;51.286;7.518;2022-09-09T01:16:21;14.30;64.60
10057;DHT22;5068;51.286;7.518;2022-09-09T01:18:05;14.30;64.30
10057;DHT22;5068;51.286;7.518;2022-09-09T01:19:58;14.30;64.40
10057;DHT22;5068;51.286;7.518;2022-09-09T01:21:46;14.30;64.40
10057;DHT22;5068;51.286;7.518;2022-09-09T01:23:43;14.30;64.30
10057;DHT22;5068;51.286;7.518;2022-09-09T01:26:04;14.30;64.40
10057;DHT22;5068;51.286;7.518;2022-09-09T01:27:47;14.30;64.40
10057;DHT22;5068;51.286;7.518;2022-09-09T01:29:21;14.20;64.20
10057;DHT22;5068;51.286;7.518;2022-09-09T01:30:56;14.20;64.30
10057;DHT22;5068;51.286;7.518;2022-09-09T01:32:39;14.20;64.40
10057;DHT22;5068;51.286;7.518;2022-09-09T01:34:17;14.20;64.50
10057;DHT22;5068;51.286;7.518;2022-09-09T01:35:55;14.20;64.40
10057;DHT22;5068;51.286;7.518;2022-09-09T01:37:37;14.10;64.50
10057;DHT22;5068;51.286;7.518;2022-09-09T01:39:11;14.10;64.40
10057;DHT22;5068;51.286;7.518;2022-09-09T01:40:46;14.10;64.50
10057;DHT22;5068;51.286;7.518;2022-09-09T01:42:22;14.20;64.70
10057;DHT22;5068;51.286;7.518;2022-09-09T01:43:56;14.10;64.90
10057;DHT22;5068;51.286;7.518;2022-09-09T01:45:31;14.10;65.10
10057;DHT22;5068;51.286;7.518;2022-09-09T01:47:04;14.10;65.10
10057;DHT22;5068;51.286;7.518;2022-09-09T01:48:43;14.10;65.10
10057;DHT22;5068;51.286;7.518;2022-09-09T01:50:20;14.10;65.10
10057;DHT22;5068;51.286;7.518;2022-09-09T01:51:55;14.10;65.20
10057;DHT22;5068;51.286;7.518;2022-09-09T01:53:35;14.10;65.30
10057;DHT22;5068;51.286;7.518;2022-09-09T01:55:08;14.10;65.30
10057;DHT22;5068;51.286;7.518;2022-09-09T01:56:52;14.10;65.40
10057;DHT22;5068;51.286;7.518;2022-09-09T01:58:46;14.10;65.60
10057;DHT22;5068;51.286;7.518;2022-09-09T02:00:29;14.00;65.60
10057;DHT22;5068;51.286;7.518;2022-09-09T02:02:10;14.10;65.50
10057;DHT22;5068;51.286;7.518;2022-09-09T02:03:57;14.10;65.60
10057;DHT22;5068;51.286;7.518;2022-09-09T02:05:40;14.10;65.50
10057;DHT22;5068;51.286;7.518;2022-09-09T02:07:35;14.10;65.50
10057;DHT22;5068;51.286;7.518;2022-09-09T02:09:26;14.10;65.50
10057;DHT22;5068;51.286;7.518;2022-09-09T02:11:05;14.10;65.30
10057;DHT22;5068;51.286;7.518;2022-09-09T02:12:48;14.10;66.10
10057;DHT22;5068;51.286;7.518;2022-09-09T02:14:30;14.00;65.10
10057;DHT22;5068;51.286;7.518;2022-09-09T02:16:13;14.00;65.00
10057;DHT22;5068;51.286;7.518;2022-09-09T02:17:55;14.00;64.90
10057;DHT22;5068;51.286;7.518;2022-09-09T02:19:32;14.00;64.90
10057;DHT22;5068;51.286;7.518;2022-09-09T02:21:17;14.00;64.80
10057;DHT22;5068;51.286;7.518;2022-09-09T02:22:52;14.00;65.60
10057;DHT22;5068;51.286;7.518;2022-09-09T02:24:31;13.90;64.80
10057;DHT22;5068;51.286;7.518;2022-09-09T02:26:20;13.90;64.90
10057;DHT22;5068;51.286;7.518;2022-09-09T02:28:01;13.90;64.90
10057;DHT22;5068;51.286;7.518;2022-09-09T02:29:39;13.90;64.90
10057;DHT22;5068;51.286;7.518;2022-09-09T02:31:16;13.90;64.90
10057;DHT22;5068;51.286;7.518;2022-09-09T02:32:53;13.90;64.90
10057;DHT22;5068;51.286;7.518;2022-09-09T02:34:44;13.90;64.90
10057;DHT22;5068;51.286;7.518;2022-09-09T02:36:22;13.80;64.70
10057;DHT22;5068;51.286;7.518;2022-09-09T02:37:59;13.80;64.60
10057;DHT22;5068;51.286;7.518;2022-09-09T02:39:36;13.80;64.60
10057;DHT22;5068;51.286;7.518;2022-09-09T02:41:13;13.80;64.60
10057;DHT22;5068;51.286;7.518;2022-09-09T02:42:48;13.80;64.50
10057;DHT22;5068;51.286;7.518;2022-09-09T02:44:24;13.70;64.40
10057;DHT22;5068;51.286;7.518;2022-09-09T02:46:06;13.80;64.40
10057;DHT22;5068;51.286;7.518;2022-09-09T02:47:50;13.70;64.30
10057;DHT22;5068;51.286;7.518;2022-09-09T02:49:40;13.70;64.20
10057;DHT22;5068;51.286;7.518;2022-09-09T02:51:27;13.70;64.20
10057;DHT22;5068;51.286;7.518;2022-09-09T02:53:15;13.70;64.00
10057;DHT22;5068;51.286;7.518;2022-09-09T02:55:04;13.60;63.90
10057;DHT22;5068;51.286;7.518;2022-09-09T02:56:47;13.60;63.90
10057;DHT22;5068;51.286;7.518;2022-09-09T02:58:30;13.60;63.90
10057;DHT22;5068;51.286;7.518;2022-09-09T03:02:24;13.60;64.10
10057;DHT22;5068;51.286;7.518;2022-09-09T03:04:03;13.50;63.80
10057;DHT22;5068;51.286;7.518;2022-09-09T03:05:37;13.50;63.90
10057;DHT22;5068;51.286;7.518;2022-09-09T03:07:11;13.50;64.00
10057;DHT22;5068;51.286;7.518;2022-09-09T03:08:46;13.50;65.10
10057;DHT22;5068;51.286;7.518;2022-09-09T03:10:26;13.40;64.20
10057;DHT22;5068;51.286;7.518;2022-09-09T03:12:00;13.40;64.30
10057;DHT22;5068;51.286;7.518;2022-09-09T03:13:37;13.40;64.50
10057;DHT22;5068;51.286;7.518;2022-09-09T03:15:11;13.40;64.60
10057;DHT22;5068;51.286;7.518;2022-09-09T03:16:44;13.30;64.60
10057;DHT22;5068;51.286;7.518;2022-09-09T03:18:20;13.40;64.80
10057;DHT22;5068;51.286;7.518;2022-09-09T03:19:56;13.40;65.10
10057;DHT22;5068;51.286;7.518;2022-09-09T03:21:30;13.30;65.00
10057;DHT22;5068;51.286;7.518;2022-09-09T03:23:03;13.30;65.90
10057;DHT22;5068;51.286;7.518;2022-09-09T03:24:36;13.30;65.30
10057;DHT22;5068;51.286;7.518;2022-09-09T03:26:13;13.30;65.50
10057;DHT22;5068;51.286;7.518;2022-09-09T03:27:50;13.40;65.70
10057;DHT22;5068;51.286;7.518;2022-09-09T03:29:27;13.30;65.60
10057;DHT22;5068;51.286;7.518;2022-09-09T03:31:05;13.30;65.80
10057;DHT22;5068;51.286;7.518;2022-09-09T03:32:43;13.30;66.30
10057;DHT22;5068;51.286;7.518;2022-09-09T03:34:21;13.30;66.20
10057;DHT22;5068;51.286;7.518;2022-09-09T03:35:54;13.30;66.20
10057;DHT22;5068;51.286;7.518;2022-09-09T03:37:28;13.30;67.10
10057;DHT22;5068;51.286;7.518;2022-09-09T03:39:03;13.30;66.20
10057;DHT22;5068;51.286;7.518;2022-09-09T03:40:36;13.30;66.20
10057;DHT22;5068;51.286;7.518;2022-09-09T03:42:11;13.30;66.30
10057;DHT22;5068;51.286;7.518;2022-09-09T03:43:45;13.30;66.30
10057;DHT22;5068;51.286;7.518;2022-09-09T03:45:19;13.30;66.20
10057;DHT22;5068;51.286;7.518;2022-09-09T03:46:53;13.30;66.20
10057;DHT22;5068;51.286;7.518;2022-09-09T03:48:26;13.30;66.30
10057;DHT22;5068;51.286;7.518;2022-09-09T03:50:03;13.30;66.30
10057;DHT22;5068;51.286;7.518;2022-09-09T03:51:41;13.30;66.30
10057;DHT22;5068;51.286;7.518;2022-09-09T03:53:18;13.30;66.30
10057;DHT22;5068;51.286;7.518;2022-09-09T03:54:53;13.30;66.40
10057;DHT22;5068;51.286;7.518;2022-09-09T03:56:28;13.30;66.60
10057;DHT22;5068;51.286;7.518;2022-09-09T03:58:01;13.30;66.70
10057;DHT22;5068;51.286;7.518;2022-09-09T03:59:36;13.30;66.80
10057;DHT22;5068;51.286;7.518;2022-09-09T04:01:12;13.30;66.90
10057;DHT22;5068;51.286;7.518;2022-09-09T04:02:49;13.30;67.00
10057;DHT22;5068;51.286;7.518;2022-09-09T04:04:25;13.30;66.90
10057;DHT22;5068;51.286;7.518;2022-09-09T04:06:03;13.30;66.90
10057;DHT22;5068;51.286;7.518;2022-09-09T04:07:38;13.30;67.00
10057;DHT22;5068;51.286;7.518;2022-09-09T04:09:14;13.30;67.00
10057;DHT22;5068;51.286;7.518;2022-09-09T04:10:49;13.30;67.00
10057;DHT22;5068;51.286;7.518;2022-09-09T04:12:22;13.30;67.00
10057;DHT22;5068;51.286;7.518;2022-09-09T04:13:55;13.30;66.90
10057;DHT22;5068;51.286;7.518;2022-09-09T04:15:28;13.30;67.00
10057;DHT22;5068;51.286;7.518;2022-09-09T04:17:02;13.30;67.10
10057;DHT22;5068;51.286;7.518;2022-09-09T04:18:38;13.30;67.10
10057;DHT22;5068;51.286;7.518;2022-09-09T04:20:12;13.30;67.10
10057;DHT22;5068;51.286;7.518;2022-09-09T04:21:47;13.30;67.10
10057;DHT22;5068;51.286;7.518;2022-09-09T04:23:26;13.40;67.20
10057;DHT22;5068;51.286;7.518;2022-09-09T04:25:02;13.40;67.20
10057;DHT22;5068;51.286;7.518;2022-09-09T04:26:38;13.30;67.10
10057;DHT22;5068;51.286;7.518;2022-09-09T04:28:11;13.30;67.10
10057;DHT22;5068;51.286;7.518;2022-09-09T04:29:44;13.40;67.10
10057;DHT22;5068;51.286;7.518;2022-09-09T04:31:19;13.30;67.00
10057;DHT22;5068;51.286;7.518;2022-09-09T04:32:58;13.30;67.00
10057;DHT22;5068;51.286;7.518;2022-09-09T04:34:31;13.30;67.00
10057;DHT22;5068;51.286;7.518;2022-09-09T04:36:06;13.30;66.90
10057;DHT22;5068;51.286;7.518;2022-09-09T04:37:41;13.30;66.90
10057;DHT22;5068;51.286;7.518;2022-09-09T04:39:13;13.30;67.10
10057;DHT22;5068;51.286;7.518;2022-09-09T04:40:47;13.30;67.20
10057;DHT22;5068;51.286;7.518;2022-09-09T04:42:19;13.30;67.20
10057;DHT22;5068;51.286;7.518;2022-09-09T04:43:53;13.30;67.20
10057;DHT22;5068;51.286;7.518;2022-09-09T04:45:27;13.30;67.20
10057;DHT22;5068;51.286;7.518;2022-09-09T04:47:00;13.30;67.20
10057;DHT22;5068;51.286;7.518;2022-09-09T04:48:34;13.30;67.20
10057;DHT22;5068;51.286;7.518;2022-09-09T04:50:09;13.30;67.20
10057;DHT22;5068;51.286;7.518;2022-09-09T04:51:44;13.30;67.30
10057;DHT22;5068;51.286;7.518;2022-09-09T04:53:20;13.30;67.40
10057;DHT22;5068;51.286;7.518;2022-09-09T04:54:53;13.30;67.40
10057;DHT22;5068;51.286;7.518;2022-09-09T04:56:26;13.30;67.40
10057;DHT22;5068;51.286;7.518;2022-09-09T04:58:03;13.30;67.40
10057;DHT22;5068;51.286;7.518;2022-09-09T04:59:37;13.30;67.50
10057;DHT22;5068;51.286;7.518;2022-09-09T05:01:12;13.30;67.50
10057;DHT22;5068;51.286;7.518;2022-09-09T05:02:49;13.30;67.60
10057;DHT22;5068;51.286;7.518;2022-09-09T05:04:22;13.20;67.50
10057;DHT22;5068;51.286;7.518;2022-09-09T05:06:02;13.30;67.70
10057;DHT22;5068;51.286;7.518;2022-09-09T05:07:37;13.20;68.00
10057;DHT22;5068;51.286;7.518;2022-09-09T05:09:13;13.30;68.00
10057;DHT22;5068;51.286;7.518;2022-09-09T05:10:48;13.30;68.20
10057;DHT22;5068;51.286;7.518;2022-09-09T05:12:22;13.20;68.00
10057;DHT22;5068;51.286;7.518;2022-09-09T05:13:57;13.20;68.00
10057;DHT22;5068;51.286;7.518;2022-09-09T05:15:32;13.20;68.10
10057;DHT22;5068;51.286;7.518;2022-09-09T05:17:06;13.20;68.20
10057;DHT22;5068;51.286;7.518;2022-09-09T05:18:42;13.30;68.40
10057;DHT22;5068;51.286;7.518;2022-09-09T05:20:17;13.20;68.30
10057;DHT22;5068;51.286;7.518;2022-09-09T05:21:50;13.30;68.50
10057;DHT22;5068;51.286;7.518;2022-09-09T05:23:29;13.30;68.50
10057;DHT22;5068;51.286;7.518;2022-09-09T05:25:06;13.30;68.60
10057;DHT22;5068;51.286;7.518;2022-09-09T05:26:40;13.30;68.70
10057;DHT22;5068;51.286;7.518;2022-09-09T05:28:14;13.30;68.60
10057;DHT22;5068;51.286;7.518;2022-09-09T05:29:48;13.30;68.70
10057;DHT22;5068;51.286;7.518;2022-09-09T05:31:21;13.30;68.80
10057;DHT22;5068;51.286;7.518;2022-09-09T05:32:58;13.30;68.90
10057;DHT22;5068;51.286;7.518;2022-09-09T05:34:32;13.30;69.00
10057;DHT22;5068;51.286;7.518;2022-09-09T05:36:07;13.30;69.30
10057;DHT22;5068;51.286;7.518;2022-09-09T05:37:42;13.30;69.40
10057;DHT22;5068;51.286;7.518;2022-09-09T05:39:16;13.30;69.40
10057;DHT22;5068;51.286;7.518;2022-09-09T05:40:51;13.30;69.40
10057;DHT22;5068;51.286;7.518;2022-09-09T05:42:24;13.30;69.50
10057;DHT22;5068;51.286;7.518;2022-09-09T05:43:58;13.40;69.50
10057;DHT22;5068;51.286;7.518;2022-09-09T05:45:33;13.30;69.50
10057;DHT22;5068;51.286;7.518;2022-09-09T05:47:07;13.30;69.60
10057;DHT22;5068;51.286;7.518;2022-09-09T05:48:42;13.40;69.70
10057;DHT22;5068;51.286;7.518;2022-09-09T05:50:18;13.40;69.80
10057;DHT22;5068;51.286;7.518;2022-09-09T05:51:52;13.40;69.80
10057;DHT22;5068;51.286;7.518;2022-09-09T05:53:27;13.40;69.90
10057;DHT22;5068;51.286;7.518;2022-09-09T05:55:05;13.50;70.00
10057;DHT22;5068;51.286;7.518;2022-09-09T05:56:41;13.50;70.10
10057;DHT22;5068;51.286;7.518;2022-09-09T05:58:14;13.50;70.20
10057;DHT22;5068;51.286;7.518;2022-09-09T05:59:49;13.50;70.20
10057;DHT22;5068;51.286;7.518;2022-09-09T06:01:24;13.50;70.30
10057;DHT22;5068;51.286;7.518;2022-09-09T06:03:01;13.50;70.40
10057;DHT22;5068;51.286;7.518;2022-09-09T06:04:35;13.50;70.30
10057;DHT22;5068;51.286;7.518;2022-09-09T06:06:11;13.60;70.30
10057;DHT22;5068;51.286;7.518;2022-09-09T06:07:47;13.60;70.30
10057;DHT22;5068;51.286;7.518;2022-09-09T06:09:21;13.60;70.20
10057;DHT22;5068;51.286;7.518;2022-09-09T06:11:01;13.70;70.40
10057;DHT22;5068;51.286;7.518;2022-09-09T06:12:37;13.60;70.50
10057;DHT22;5068;51.286;7.518;2022-09-09T06:14:11;13.60;70.40
10057;DHT22;5068;51.286;7.518;2022-09-09T06:15:50;13.70;70.40
10057;DHT22;5068;51.286;7.518;2022-09-09T06:17:24;13.70;70.60
10057;DHT22;5068;51.286;7.518;2022-09-09T06:18:57;13.70;70.60
10057;DHT22;5068;51.286;7.518;2022-09-09T06:20:33;13.70;70.80
10057;DHT22;5068;51.286;7.518;2022-09-09T06:22:07;13.70;70.80
10057;DHT22;5068;51.286;7.518;2022-09-09T06:23:44;13.70;70.80
10057;DHT22;5068;51.286;7.518;2022-09-09T06:25:17;13.70;70.80
10057;DHT22;5068;51.286;7.518;2022-09-09T06:26:52;13.80;71.00
10057;DHT22;5068;51.286;7.518;2022-09-09T06:28:32;13.70;70.90
10057;DHT22;5068;51.286;7.518;2022-09-09T06:30:06;13.80;71.10
10057;DHT22;5068;51.286;7.518;2022-09-09T06:31:41;13.80;71.10
10057;DHT22;5068;51.286;7.518;2022-09-09T06:33:20;13.80;71.20
10057;DHT22;5068;51.286;7.518;2022-09-09T06:34:53;13.90;71.40
10057;DHT22;5068;51.286;7.518;2022-09-09T06:36:28;13.90;71.50
10057;DHT22;5068;51.286;7.518;2022-09-09T06:38:03;13.90;71.60
10057;DHT22;5068;51.286;7.518;2022-09-09T06:39:37;13.90;71.70
10057;DHT22;5068;51.286;7.518;2022-09-09T06:41:13;13.90;71.90
10057;DHT22;5068;51.286;7.518;2022-09-09T06:42:49;13.90;72.00
10057;DHT22;5068;51.286;7.518;2022-09-09T06:44:29;14.00;72.20
10057;DHT22;5068;51.286;7.518;2022-09-09T06:46:10;14.00;72.30
10057;DHT22;5068;51.286;7.518;2022-09-09T06:47:45;14.00;72.60
10057;DHT22;5068;51.286;7.518;2022-09-09T06:49:19;14.10;72.60
10057;DHT22;5068;51.286;7.518;2022-09-09T06:51:00;14.10;72.60
10057;DHT22;5068;51.286;7.518;2022-09-09T06:52:35;14.10;72.90
10057;DHT22;5068;51.286;7.518;2022-09-09T06:54:09;14.10;72.70
10057;DHT22;5068;51.286;7.518;2022-09-09T06:55:47;14.10;72.70
10057;DHT22;5068;51.286;7.518;2022-09-09T06:57:21;14.20;72.80
10057;DHT22;5068;51.286;7.518;2022-09-09T06:59:15;14.20;72.80
10057;DHT22;5068;51.286;7.518;2022-09-09T07:00:50;14.20;72.70
10057;DHT22;5068;51.286;7.518;2022-09-09T07:02:25;14.20;72.90
10057;DHT22;5068;51.286;7.518;2022-09-09T07:04:02;14.30;73.00
10057;DHT22;5068;51.286;7.518;2022-09-09T07:05:41;14.30;73.10
10057;DHT22;5068;51.286;7.518;2022-09-09T07:07:14;14.40;73.20
10057;DHT22;5068;51.286;7.518;2022-09-09T07:08:49;14.40;73.30
10057;DHT22;5068;51.286;7.518;2022-09-09T07:10:30;14.40;73.60
10057;DHT22;5068;51.286;7.518;2022-09-09T07:12:04;14.40;73.70
10057;DHT22;5068;51.286;7.518;2022-09-09T07:13:40;14.50;73.80
10057;DHT22;5068;51.286;7.518;2022-09-09T07:15:14;14.50;73.80
10057;DHT22;5068;51.286;7.518;2022-09-09T07:16:50;14.60;73.80
10057;DHT22;5068;51.286;7.518;2022-09-09T07:18:30;14.60;73.70
10057;DHT22;5068;51.286;7.518;2022-09-09T07:20:04;14.70;73.60
10057;DHT22;5068;51.286;7.518;2022-09-09T07:21:39;14.70;73.60
10057;DHT22;5068;51.286;7.518;2022-09-09T07:23:14;14.70;73.60
10057;DHT22;5068;51.286;7.518;2022-09-09T07:24:48;14.80;73.60
10057;DHT22;5068;51.286;7.518;2022-09-09T07:26:24;14.80;73.40
10057;DHT22;5068;51.286;7.518;2022-09-09T07:28:00;14.80;73.40
10057;DHT22;5068;51.286;7.518;2022-09-09T07:29:35;14.90;73.40
10057;DHT22;5068;51.286;7.518;2022-09-09T07:31:13;14.90;73.40
10057;DHT22;5068;51.286;7.518;2022-09-09T07:32:51;14.90;73.50
10057;DHT22;5068;51.286;7.518;2022-09-09T07:34:25;15.00;73.50
10057;DHT22;5068;51.286;7.518;2022-09-09T07:36:03;15.00;73.30
10057;DHT22;5068;51.286;7.518;2022-09-09T07:37:41;15.00;73.40
10057;DHT22;5068;51.286;7.518;2022-09-09T07:39:21;15.10;74.00
10057;DHT22;5068;51.286;7.518;2022-09-09T07:41:03;15.10;73.00
10057;DHT22;5068;51.286;7.518;2022-09-09T07:42:38;15.10;73.00
10057;DHT22;5068;51.286;7.518;2022-09-09T07:44:13;15.10;73.00
10057;DHT22;5068;51.286;7.518;2022-09-09T07:45:57;15.20;73.40
10057;DHT22;5068;51.286;7.518;2022-09-09T07:47:32;15.20;73.40
10057;DHT22;5068;51.286;7.518;2022-09-09T07:49:08;15.30;73.10
10057;DHT22;5068;51.286;7.518;2022-09-09T07:50:42;15.30;72.80
10057;DHT22;5068;51.286;7.518;2022-09-09T07:52:16;15.40;72.70
10057;DHT22;5068;51.286;7.518;2022-09-09T07:53:58;15.40;72.70
10057;DHT22;5068;51.286;7.518;2022-09-09T07:55:34;15.50;72.60
10057;DHT22;5068;51.286;7.518;2022-09-09T07:57:08;15.50;72.50
10057;DHT22;5068;51.286;7.518;2022-09-09T07:58:44;15.50;72.30
10057;DHT22;5068;51.286;7.518;2022-09-09T08:00:19;15.60;71.90
10057;DHT22;5068;51.286;7.518;2022-09-09T08:01:57;15.70;71.80
10057;DHT22;5068;51.286;7.518;2022-09-09T08:03:34;15.70;71.80
10057;DHT22;5068;51.286;7.518;2022-09-09T08:05:09;15.70;71.60
10057;DHT22;5068;51.286;7.518;2022-09-09T08:06:45;15.80;71.40
10057;DHT22;5068;51.286;7.518;2022-09-09T08:08:22;15.80;71.40
10057;DHT22;5068;51.286;7.518;2022-09-09T08:09:55;15.80;71.10
10057;DHT22;5068;51.286;7.518;2022-09-09T08:11:33;15.90;71.10
10057;DHT22;5068;51.286;7.518;2022-09-09T08:13:10;15.90;70.90
10057;DHT22;5068;51.286;7.518;2022-09-09T08:14:50;15.90;70.60
10057;DHT22;5068;51.286;7.518;2022-09-09T08:16:30;16.00;70.70
10057;DHT22;5068;51.286;7.518;2022-09-09T08:18:05;16.00;70.50
10057;DHT22;5068;51.286;7.518;2022-09-09T08:19:39;16.00;70.50
10057;DHT22;5068;51.286;7.518;2022-09-09T08:21:20;16.10;70.50
10057;DHT22;5068;51.286;7.518;2022-09-09T08:22:55;16.10;70.60
10057;DHT22;5068;51.286;7.518;2022-09-09T08:24:29;16.20;70.40
10057;DHT22;5068;51.286;7.518;2022-09-09T08:26:07;16.20;69.70
10057;DHT22;5068;51.286;7.518;2022-09-09T08:27:43;16.30;69.50
10057;DHT22;5068;51.286;7.518;2022-09-09T08:29:17;16.40;69.60
10057;DHT22;5068;51.286;7.518;2022-09-09T08:30:51;16.40;69.30
10057;DHT22;5068;51.286;7.518;2022-09-09T08:32:26;16.50;69.50
10057;DHT22;5068;51.286;7.518;2022-09-09T08:34:00;16.50;69.20
10057;DHT22;5068;51.286;7.518;2022-09-09T08:35:35;16.60;69.20
10057;DHT22;5068;51.286;7.518;2022-09-09T08:37:09;16.70;68.30
10057;DHT22;5068;51.286;7.518;2022-09-09T08:38:47;16.70;67.30
10057;DHT22;5068;51.286;7.518;2022-09-09T08:40:28;16.80;67.30
10057;DHT22;5068;51.286;7.518;2022-09-09T08:42:31;16.90;67.10
10057;DHT22;5068;51.286;7.518;2022-09-09T08:44:14;17.00;66.40
10057;DHT22;5068;51.286;7.518;2022-09-09T08:46:01;17.10;65.70
10057;DHT22;5068;51.286;7.518;2022-09-09T08:47:51;17.10;65.60
10057;DHT22;5068;51.286;7.518;2022-09-09T08:49:55;17.20;65.50
10057;DHT22;5068;51.286;7.518;2022-09-09T08:51:39;17.30;65.60
10057;DHT22;5068;51.286;7.518;2022-09-09T08:53:18;17.30;65.70
10057;DHT22;5068;51.286;7.518;2022-09-09T08:55:03;17.40;64.40
10057;DHT22;5068;51.286;7.518;2022-09-09T08:56:54;17.50;64.10
10057;DHT22;5068;51.286;7.518;2022-09-09T08:58:31;17.60;64.30
10057;DHT22;5068;51.286;7.518;2022-09-09T09:00:10;17.70;63.20
10057;DHT22;5068;51.286;7.518;2022-09-09T09:01:56;17.70;63.00
10057;DHT22;5068;51.286;7.518;2022-09-09T09:03:48;17.80;62.30
10057;DHT22;5068;51.286;7.518;2022-09-09T09:05:35;17.90;61.70
10057;DHT22;5068;51.286;7.518;2022-09-09T09:07:21;17.90;61.50
10057;DHT22;5068;51.286;7.518;2022-09-09T09:09:17;18.00;61.20
10057;DHT22;5068;51.286;7.518;2022-09-09T09:10:58;18.00;60.80
10057;DHT22;5068;51.286;7.518;2022-09-09T09:12:38;18.10;61.20
10057;DHT22;5068;51.286;7.518;2022-09-09T09:14:19;18.10;61.20
10057;DHT22;5068;51.286;7.518;2022-09-09T09:16:02;18.20;60.00
10057;DHT22;5068;51.286;7.518;2022-09-09T09:17:46;18.20;59.70
10057;DHT22;5068;51.286;7.518;2022-09-09T09:19:21;18.30;60.30
10057;DHT22;5068;51.286;7.518;2022-09-09T09:21:02;18.40;60.30
10057;DHT22;5068;51.286;7.518;2022-09-09T09:22:48;18.40;59.90
10057;DHT22;5068;51.286;7.518;2022-09-09T09:24:29;18.40;59.20
10057;DHT22;5068;51.286;7.518;2022-09-09T09:26:10;18.50;59.30
10057;DHT22;5068;51.286;7.518;2022-09-09T09:27:49;18.50;59.30
10057;DHT22;5068;51.286;7.518;2022-09-09T09:29:44;18.50;59.40
10057;DHT22;5068;51.286;7.518;2022-09-09T09:31:38;18.60;59.10
10057;DHT22;5068;51.286;7.518;2022-09-09T09:33:18;18.60;59.00
10057;DHT22;5068;51.286;7.518;2022-09-09T09:34:56;18.70;58.60
10057;DHT22;5068;51.286;7.518;2022-09-09T09:36:41;18.70;58.20
10057;DHT22;5068;51.286;7.518;2022-09-09T09:38:21;18.70;57.80
10057;DHT22;5068;51.286;7.518;2022-09-09T09:40:20;18.80;57.80
10057;DHT22;5068;51.286;7.518;2022-09-09T09:41:56;18.80;57.70
10057;DHT22;5068;51.286;7.518;2022-09-09T09:43:40;18.90;57.50
10057;DHT22;5068;51.286;7.518;2022-09-09T09:45:27;18.90;57.10
10057;DHT22;5068;51.286;7.518;2022-09-09T09:47:08;18.90;56.60
10057;DHT22;5068;51.286;7.518;2022-09-09T09:48:56;18.90;56.40
10057;DHT22;5068;51.286;7.518;2022-09-09T09:50:32;18.90;56.10
10057;DHT22;5068;51.286;7.518;2022-09-09T09:52:14;18.90;56.40
10057;DHT22;5068;51.286;7.518;2022-09-09T09:53:53;19.00;55.70
10057;DHT22;5068;51.286;7.518;2022-09-09T09:55:30;19.00;56.00
10057;DHT22;5068;51.286;7.518;2022-09-09T09:57:09;19.00;55.20
10057;DHT22;5068;51.286;7.518;2022-09-09T09:58:50;19.00;55.00
10057;DHT22;5068;51.286;7.518;2022-09-09T10:00:31;19.00;54.90
10057;DHT22;5068;51.286;7.518;2022-09-09T10:02:15;19.00;55.00
10057;DHT22;5068;51.286;7.518;2022-09-09T10:03:58;19.00;54.90
10057;DHT22;5068;51.286;7.518;2022-09-09T10:05:36;19.00;54.80
10057;DHT22;5068;51.286;7.518;2022-09-09T10:07:18;19.00;55.10
10057;DHT22;5068;51.286;7.518;2022-09-09T10:08:53;19.00;55.20
10057;DHT22;5068;51.286;7.518;2022-09-09T10:10:36;19.00;55.30
10057;DHT22;5068;51.286;7.518;2022-09-09T10:12:28;19.00;54.70
10057;DHT22;5068;51.286;7.518;2022-09-09T10:14:15;19.00;54.40
10057;DHT22;5068;51.286;7.518;2022-09-09T10:16:02;19.10;54.90
10057;DHT22;5068;51.286;7.518;2022-09-09T10:17:56;19.20;54.60
10057;DHT22;5068;51.286;7.518;2022-09-09T10:19:37;19.20;53.60
10057;DHT22;5068;51.286;7.518;2022-09-09T10:21:20;19.20;54.10
10057;DHT22;5068;51.286;7.518;2022-09-09T10:23:15;19.30;53.40
10057;DHT22;5068;51.286;7.518;2022-09-09T10:25:25;19.40;53.20
10057;DHT22;5068;51.286;7.518;2022-09-09T10:27:14;19.40;52.00
10057;DHT22;5068;51.286;7.518;2022-09-09T10:29:08;19.40;52.50
10057;DHT22;5068;51.286;7.518;2022-09-09T10:30:56;19.50;52.70
10057;DHT22;5068;51.286;7.518;2022-09-09T10:32:40;19.60;53.00
10057;DHT22;5068;51.286;7.518;2022-09-09T10:34:28;19.50;52.40
10057;DHT22;5068;51.286;7.518;2022-09-09T10:36:20;19.60;51.90
10057;DHT22;5068;51.286;7.518;2022-09-09T10:38:20;19.60;51.70
10057;DHT22;5068;51.286;7.518;2022-09-09T10:40:12;19.60;50.80